createdAt,value
2022-11-28T00:01:36.131Z,48.17
2022-11-28T00:04:04.023Z,50.42
2022-11-28T00:06:31.862Z,46.53
2022-11-28T00:09:00.538Z,48.97
2022-11-28T00:11:28.394Z,48.58
2022-11-28T00:13:56.071Z,46.88
2022-11-28T00:16:24.246Z,51.95
2022-11-28T00:18:52.477Z,49.65
2022-11-28T00:21:20.107Z,48.42
2022-11-28T00:23:48.282Z,52.80
2022-11-28T00:26:18.792Z,48.92
2022-11-28T00:28:46.309Z,49.67
2022-11-28T00:31:18.678Z,50.80
2022-11-28T00:33:46.168Z,46.33
2022-11-28T00:36:13.923Z,46.80
2022-11-28T00:38:41.541Z,48.08
2022-11-28T00:41:10.181Z,52.38
2022-11-28T00:43:37.800Z,50.90
2022-11-28T00:46:05.325Z,49.13
2022-11-28T00:48:33.486Z,50.13
2022-11-28T00:51:26.930Z,51.33
2022-11-28T00:53:55.637Z,49.00
2022-11-28T00:56:24.645Z,49.28
2022-11-28T00:58:52.210Z,49.95
2022-11-28T01:01:21.389Z,51.47
2022-11-28T01:03:49.490Z,49.42
2022-11-28T01:06:30.431Z,53.47
2022-11-28T01:08:59.239Z,51.00
2022-11-28T01:11:27.130Z,48.92
2022-11-28T01:13:55.334Z,50.53
2022-11-28T01:16:22.979Z,51.05
2022-11-28T01:18:50.579Z,53.78
2022-11-28T01:21:18.035Z,52.45
2022-11-28T01:23:45.574Z,52.83
2022-11-28T01:26:16.606Z,52.10
2022-11-28T01:28:44.087Z,55.13
2022-11-28T01:31:13.084Z,52.15
2022-11-28T01:33:40.561Z,55.95
2022-11-28T01:36:08.216Z,53.05
2022-11-28T01:38:35.753Z,54.47
2022-11-28T01:41:03.232Z,55.83
2022-11-28T01:43:30.861Z,51.00
2022-11-28T01:45:58.356Z,48.72
2022-11-28T01:48:27.471Z,51.20
2022-11-28T01:50:57.397Z,50.13
2022-11-28T01:53:27.398Z,49.85
2022-11-28T01:56:03.869Z,50.53
2022-11-28T01:58:31.732Z,46.88
2022-11-28T02:00:59.898Z,49.08
2022-11-28T02:03:31.272Z,51.20
2022-11-28T02:05:58.926Z,54.55
2022-11-28T02:08:26.356Z,47.22
2022-11-28T02:11:08.964Z,53.65
2022-11-28T02:13:42.434Z,50.38
2022-11-28T02:16:28.859Z,54.38
2022-11-28T02:19:03.787Z,50.97
2022-11-28T02:21:34.168Z,53.75
2022-11-28T02:24:33.406Z,56.60
2022-11-28T02:27:21.076Z,51.40
2022-11-28T02:29:48.586Z,55.53
2022-11-28T02:32:16.008Z,49.78
2022-11-28T02:35:02.286Z,57.72
2022-11-28T02:37:37.944Z,48.40
2022-11-28T02:40:22.996Z,55.25
2022-11-28T02:43:09.287Z,53.45
2022-11-28T02:45:47.099Z,50.22
2022-11-28T02:48:16.977Z,52.15
2022-11-28T02:50:56.088Z,54.15
2022-11-28T02:53:25.435Z,54.35
2022-11-28T02:55:53.396Z,51.80
2022-11-28T02:58:21.120Z,48.33
2022-11-28T03:00:51.255Z,50.42
2022-11-28T03:03:27.717Z,52.28
2022-11-28T03:06:04.010Z,49.65
2022-11-28T03:08:45.091Z,46.30
2022-11-28T03:11:12.552Z,51.97
2022-11-28T03:13:54.939Z,52.53
2022-11-28T03:16:37.742Z,51.58
2022-11-28T03:19:17.471Z,54.88
2022-11-28T03:22:03.783Z,50.17
2022-11-28T03:24:31.250Z,50.22
2022-11-28T03:27:03.905Z,54.22
2022-11-28T03:29:31.277Z,48.28
2022-11-28T03:32:01.607Z,48.45
2022-11-28T03:34:32.547Z,47.65
2022-11-28T03:37:07.245Z,49.95
2022-11-28T03:39:37.907Z,49.90
2022-11-28T03:42:13.266Z,52.03
2022-11-28T03:47:08.596Z,54.95
2022-11-28T03:49:41.269Z,50.78
2022-11-28T03:52:11.554Z,48.22
2022-11-28T03:54:46.737Z,49.10
2022-11-28T03:57:18.558Z,47.20
2022-11-28T03:59:48.231Z,50.38
2022-11-28T04:02:35.115Z,50.08
2022-11-28T04:05:08.485Z,50.33
2022-11-28T04:07:38.828Z,49.17
2022-11-28T04:10:23.270Z,51.33
2022-11-28T04:13:01.189Z,46.25
2022-11-28T04:15:37.331Z,43.17
2022-11-28T04:18:07.946Z,44.63
2022-11-28T04:21:01.720Z,47.70
2022-11-28T04:23:30.803Z,46.28
2022-11-28T04:26:01.552Z,45.22
2022-11-28T04:28:30.701Z,49.28
2022-11-28T04:30:59.425Z,47.17
2022-11-28T04:33:28.001Z,45.40
2022-11-28T04:35:56.851Z,49.05
2022-11-28T04:38:25.369Z,46.75
2022-11-28T04:40:54.606Z,46.67
2022-11-28T04:43:24.666Z,49.22
2022-11-28T04:45:54.416Z,50.80
2022-11-28T04:48:21.999Z,47.92
2022-11-28T04:51:01.594Z,46.75
2022-11-28T04:53:29.062Z,50.75
2022-11-28T04:56:01.421Z,47.67
2022-11-28T04:58:34.710Z,50.97
2022-11-28T05:01:04.578Z,51.22
2022-11-28T05:03:32.483Z,52.13
2022-11-28T05:06:00.071Z,53.42
2022-11-28T05:08:27.486Z,52.83
2022-11-28T05:10:55.014Z,56.92
2022-11-28T05:13:22.413Z,56.85
2022-11-28T05:15:49.824Z,53.40
2022-11-28T05:18:17.308Z,59.30
2022-11-28T05:20:44.781Z,61.90
2022-11-28T05:23:12.218Z,60.20
2022-11-28T05:25:40.232Z,55.92
2022-11-28T05:28:07.644Z,53.85
2022-11-28T05:30:35.082Z,56.85
2022-11-28T05:33:02.840Z,60.50
2022-11-28T05:35:30.256Z,69.13
2022-11-28T05:37:57.694Z,58.05
2022-11-28T05:40:25.137Z,58.53
2022-11-28T05:42:52.644Z,60.30
2022-11-28T05:45:20.014Z,54.50
2022-11-28T05:47:47.498Z,51.00
2022-11-28T05:50:14.950Z,56.63
2022-11-28T05:52:42.416Z,49.67
2022-11-28T05:55:10.033Z,50.90
2022-11-28T05:57:37.501Z,44.10
2022-11-28T06:00:05.222Z,44.97
2022-11-28T06:02:39.096Z,45.42
2022-11-28T06:05:27.322Z,47.17
2022-11-28T06:07:54.376Z,41.03
2022-11-28T06:10:22.640Z,44.88
2022-11-28T06:12:50.273Z,42.67
2022-11-28T06:15:17.693Z,44.80
2022-11-28T06:17:45.140Z,40.17
2022-11-28T06:20:12.675Z,42.80
2022-11-28T06:22:40.067Z,38.05
2022-11-28T06:25:07.608Z,35.85
2022-11-28T06:27:36.036Z,35.97
2022-11-28T06:30:03.552Z,50.83
2022-11-28T06:32:30.988Z,43.75
2022-11-28T06:34:58.419Z,69.50
2022-11-28T06:37:25.808Z,58.20
2022-11-28T06:39:53.342Z,45.70
2022-11-28T06:42:20.773Z,37.90
2022-11-28T06:44:48.227Z,36.42
2022-11-28T06:47:15.640Z,39.08
2022-11-28T06:49:43.218Z,38.33
2022-11-28T06:52:10.773Z,40.50
2022-11-28T06:54:38.224Z,34.35
2022-11-28T06:57:05.616Z,36.40
2022-11-28T06:59:33.097Z,35.72
2022-11-28T07:02:07.134Z,41.88
2022-11-28T07:04:35.418Z,34.33
2022-11-28T07:07:02.800Z,32.17
2022-11-28T07:09:30.234Z,37.35
2022-11-28T07:11:57.701Z,62.70
2022-11-28T07:14:25.219Z,41.80
2022-11-28T07:16:53.022Z,38.72
2022-11-28T07:19:23.135Z,40.58
2022-11-28T07:21:50.984Z,51.55
2022-11-28T07:24:19.564Z,35.10
2022-11-28T07:26:47.474Z,29.67
2022-11-28T07:29:16.059Z,38.92
2022-11-28T07:31:43.685Z,88.43
2022-11-28T07:34:11.459Z,32.33
2022-11-28T07:36:39.096Z,30.02
2022-11-28T07:39:08.666Z,32.45
2022-11-28T07:41:36.102Z,30.55
2022-11-28T07:44:04.449Z,25.88
2022-11-28T07:46:32.280Z,37.45
2022-11-28T07:49:00.010Z,35.45
2022-11-28T07:51:29.541Z,40.88
2022-11-28T07:53:57.093Z,34.63
2022-11-28T07:56:31.931Z,34.50
2022-11-28T07:59:07.454Z,37.95
2022-11-28T08:01:36.183Z,34.13
2022-11-28T08:04:05.218Z,29.00
2022-11-28T08:06:32.690Z,31.52
2022-11-28T08:09:01.539Z,29.83
2022-11-28T08:11:30.233Z,33.53
2022-11-28T08:13:59.302Z,27.58
2022-11-28T08:16:27.564Z,28.45
2022-11-28T08:18:56.078Z,27.15
2022-11-28T08:21:24.962Z,25.75
2022-11-28T08:23:53.396Z,26.52
2022-11-28T08:26:28.935Z,25.00
2022-11-28T08:28:57.011Z,31.50
2022-11-28T08:31:26.512Z,34.22
2022-11-28T08:33:54.852Z,30.67
2022-11-28T08:36:22.619Z,32.50
2022-11-28T08:39:09.338Z,34.97
2022-11-28T08:41:37.191Z,34.38
2022-11-28T08:44:04.687Z,33.13
2022-11-28T08:46:32.701Z,34.05
2022-11-28T08:49:04.182Z,34.30
2022-11-28T08:51:32.339Z,32.83
2022-11-28T08:54:00.226Z,38.85
2022-11-28T08:56:28.130Z,33.63
2022-11-28T08:58:56.243Z,36.33
2022-11-28T09:01:25.924Z,36.53
2022-11-28T09:03:54.427Z,37.30
2022-11-28T09:06:22.389Z,47.78
2022-11-28T09:08:50.481Z,42.38
2022-11-28T09:11:19.106Z,41.80
2022-11-28T09:13:46.788Z,47.05
2022-11-28T09:16:14.701Z,46.97
2022-11-28T09:18:42.482Z,62.58
2022-11-28T09:21:11.634Z,41.88
2022-11-28T09:23:40.984Z,40.85
2022-11-28T09:26:11.981Z,46.85
2022-11-28T09:28:39.496Z,43.85
2022-11-28T09:31:07.768Z,39.20
2022-11-28T09:33:35.619Z,44.75
2022-11-28T09:36:07.480Z,42.20
2022-11-28T09:38:35.238Z,28.85
2022-11-28T09:41:03.413Z,39.55
2022-11-28T09:43:33.738Z,46.88
2022-11-28T09:46:02.904Z,32.80
2022-11-28T09:48:34.615Z,31.35
2022-11-28T09:51:06.065Z,37.25
2022-11-28T09:53:33.523Z,40.33
2022-11-28T09:56:03.923Z,33.75
2022-11-28T09:58:34.879Z,30.90
2022-11-28T10:01:05.481Z,32.45
2022-11-28T10:03:38.955Z,46.78
2022-11-28T10:06:06.609Z,36.63
2022-11-28T10:08:52.042Z,34.05
2022-11-28T10:11:23.148Z,38.83
2022-11-28T10:14:19.937Z,43.35
2022-11-28T10:17:04.338Z,42.38
2022-11-28T10:19:54.557Z,35.83
2022-11-28T10:22:46.369Z,38.08
2022-11-28T10:25:23.208Z,36.25
2022-11-28T10:27:51.102Z,44.85
2022-11-28T10:30:23.508Z,36.72
2022-11-28T10:32:56.825Z,36.72
2022-11-28T10:35:45.275Z,35.25
2022-11-28T10:38:17.053Z,40.85
2022-11-28T10:40:50.729Z,34.55
2022-11-28T10:43:21.254Z,34.80
2022-11-28T10:45:55.005Z,35.92
2022-11-28T10:48:41.279Z,30.75
2022-11-28T10:51:11.785Z,28.80
2022-11-28T10:53:42.308Z,33.53
2022-11-28T10:56:18.894Z,34.38
2022-11-28T10:59:09.636Z,43.45
2022-11-28T11:01:39.045Z,30.67
2022-11-28T11:04:07.187Z,35.95
2022-11-28T11:06:41.862Z,35.45
2022-11-28T11:09:21.419Z,32.70
2022-11-28T11:11:55.550Z,45.08
2022-11-28T11:14:34.606Z,29.10
2022-11-28T11:17:02.319Z,31.13
2022-11-28T11:19:32.583Z,32.05
2022-11-28T11:22:02.273Z,30.67
2022-11-28T11:24:30.102Z,33.25
2022-11-28T11:27:04.181Z,31.80
2022-11-28T11:29:35.607Z,34.83
2022-11-28T11:32:06.194Z,34.03
2022-11-28T11:34:37.460Z,31.92
2022-11-28T11:37:23.451Z,31.95
2022-11-28T11:39:54.110Z,31.25
2022-11-28T11:42:23.012Z,31.10
2022-11-28T11:44:50.885Z,36.67
2022-11-28T11:47:18.815Z,34.53
2022-11-28T11:49:48.386Z,32.72
2022-11-28T11:52:23.304Z,34.40
2022-11-28T11:54:57.005Z,61.53
2022-11-28T11:57:33.213Z,44.53
2022-11-28T12:00:07.171Z,48.65
2022-11-28T12:02:42.562Z,32.08
2022-11-28T12:05:22.398Z,36.03
2022-11-28T12:07:59.659Z,31.83
2022-11-28T12:10:28.767Z,32.45
2022-11-28T12:12:56.179Z,34.45
2022-11-28T12:15:39.706Z,35.35
2022-11-28T12:18:13.076Z,28.98
2022-11-28T12:20:40.570Z,27.25
2022-11-28T12:23:09.979Z,30.27
2022-11-28T12:25:55.385Z,30.15
2022-11-28T12:28:41.496Z,28.85
2022-11-28T12:31:08.978Z,26.67
2022-11-28T12:33:54.120Z,28.17
2022-11-28T12:36:38.846Z,29.92
2022-11-28T12:39:06.306Z,33.50
2022-11-28T12:41:41.023Z,32.97
2022-11-28T12:44:14.451Z,32.83
2022-11-28T12:46:50.268Z,26.55
2022-11-28T12:49:20.648Z,27.48
2022-11-28T12:52:06.842Z,31.77
2022-11-28T12:54:52.859Z,27.65
2022-11-28T12:57:42.453Z,26.52
2022-11-28T13:00:10.226Z,28.75
2022-11-28T13:02:56.411Z,31.65
2022-11-28T13:05:30.208Z,26.85
2022-11-28T13:08:16.647Z,31.60
2022-11-28T13:10:59.490Z,35.25
2022-11-28T13:13:35.603Z,26.67
2022-11-28T13:16:26.972Z,29.48
2022-11-28T13:19:17.511Z,33.97
2022-11-28T13:22:06.666Z,32.38
2022-11-28T13:24:43.251Z,35.33
2022-11-28T13:27:33.286Z,30.38
2022-11-28T13:30:33.040Z,29.95
2022-11-28T13:33:00.491Z,32.58
2022-11-28T13:35:29.008Z,38.17
2022-11-28T13:40:54.353Z,44.85
2022-11-28T13:43:41.539Z,29.80
2022-11-28T13:46:10.161Z,31.25
2022-11-28T13:49:06.043Z,52.05
2022-11-28T13:51:31.058Z,31.13
2022-11-28T13:54:18.309Z,27.17
2022-11-28T13:57:04.135Z,28.40
2022-11-28T13:59:32.162Z,34.08
2022-11-28T14:02:01.678Z,29.30
2022-11-28T14:04:29.777Z,39.20
2022-11-28T14:07:04.654Z,39.63
2022-11-28T14:09:52.402Z,32.78
2022-11-28T14:12:22.769Z,33.20
2022-11-28T14:14:50.243Z,37.33
2022-11-28T14:17:36.421Z,39.72
2022-11-28T14:20:09.967Z,31.88
2022-11-28T14:22:53.226Z,35.65
2022-11-28T14:25:34.402Z,31.52
2022-11-28T14:28:04.993Z,30.65
2022-11-28T14:30:35.189Z,36.00
2022-11-28T14:33:23.782Z,34.78
2022-11-28T14:35:51.417Z,33.70
2022-11-28T14:38:31.789Z,35.30
2022-11-28T14:41:03.310Z,34.15
2022-11-28T14:43:52.912Z,43.63
2022-11-28T14:46:20.443Z,36.55
2022-11-28T14:49:01.119Z,33.67
2022-11-28T14:51:46.836Z,62.33
2022-11-28T14:54:35.631Z,60.72
2022-11-28T14:57:11.636Z,44.20
2022-11-28T14:59:40.198Z,57.92
2022-11-28T15:02:11.609Z,52.42
2022-11-28T15:04:39.423Z,81.07
2022-11-28T15:07:17.574Z,86.70
2022-11-28T15:10:11.509Z,49.45
2022-11-28T15:12:57.709Z,46.72
2022-11-28T15:15:25.251Z,48.75
2022-11-28T15:17:54.040Z,44.88
2022-11-28T15:20:32.529Z,34.83
2022-11-28T15:23:00.948Z,34.92
2022-11-28T15:25:35.369Z,28.38
2022-11-28T15:28:15.800Z,31.25
2022-11-28T15:30:48.280Z,30.23
2022-11-28T15:33:16.134Z,33.40
2022-11-28T15:35:55.425Z,30.17
2022-11-28T15:38:23.667Z,32.17
2022-11-28T15:40:52.313Z,34.42
2022-11-28T15:43:19.926Z,33.10
2022-11-28T15:45:52.582Z,34.88
2022-11-28T15:48:39.918Z,30.85
2022-11-28T15:51:08.945Z,28.83
2022-11-28T15:53:41.111Z,31.02
2022-11-28T15:56:15.972Z,25.92
2022-11-28T15:58:44.572Z,35.38
2022-11-28T16:01:25.516Z,27.77
2022-11-28T16:04:22.510Z,26.30
2022-11-28T16:06:51.998Z,27.77
2022-11-28T16:09:19.455Z,32.38
2022-11-28T16:11:51.581Z,30.20
2022-11-28T16:14:24.936Z,29.60
2022-11-28T16:16:52.508Z,31.75
2022-11-28T16:19:32.297Z,29.70
2022-11-28T16:22:01.769Z,31.25
2022-11-28T16:24:36.924Z,28.35
2022-11-28T16:27:06.587Z,34.67
2022-11-28T16:29:35.158Z,31.40
2022-11-28T16:32:08.439Z,28.77
2022-11-28T16:34:49.742Z,30.67
2022-11-28T16:37:21.713Z,28.83
2022-11-28T16:39:59.402Z,32.90
2022-11-28T16:42:27.160Z,30.45
2022-11-28T16:44:54.587Z,31.77
2022-11-28T16:47:26.680Z,30.73
2022-11-28T16:50:15.748Z,30.20
2022-11-28T16:52:46.731Z,32.75
2022-11-28T16:55:46.721Z,30.17
2022-11-28T16:58:14.238Z,31.38
2022-11-28T17:00:43.780Z,30.70
2022-11-28T17:03:41.834Z,31.15
2022-11-28T17:06:15.867Z,31.95
2022-11-28T17:08:43.432Z,39.90
2022-11-28T17:11:11.291Z,35.00
2022-11-28T17:13:38.886Z,36.03
2022-11-28T17:16:07.849Z,32.95
2022-11-28T17:18:35.309Z,33.38
2022-11-28T17:21:02.713Z,30.30
2022-11-28T17:23:30.310Z,29.92
2022-11-28T17:25:57.738Z,31.15
2022-11-28T17:28:28.969Z,37.25
2022-11-28T17:30:56.670Z,37.78
2022-11-28T17:33:24.131Z,34.60
2022-11-28T17:35:53.472Z,34.40
2022-11-28T17:38:20.895Z,30.63
2022-11-28T17:40:48.358Z,28.70
2022-11-28T17:43:19.968Z,28.15
2022-11-28T17:45:48.923Z,30.27
2022-11-28T17:48:16.502Z,30.60
2022-11-28T17:50:45.357Z,29.40
2022-11-28T17:53:14.483Z,26.90
2022-11-28T17:55:42.733Z,26.42
2022-11-28T17:58:18.082Z,32.80
2022-11-28T18:03:13.746Z,28.17
2022-11-28T18:05:43.130Z,34.38
2022-11-28T18:08:10.867Z,27.75
2022-11-28T18:10:39.150Z,27.10
2022-11-28T18:13:07.484Z,30.38
2022-11-28T18:15:35.872Z,28.55
2022-11-28T18:18:04.410Z,27.40
2022-11-28T18:20:32.543Z,28.17
2022-11-28T18:23:00.730Z,25.08
2022-11-28T18:25:28.723Z,27.92
2022-11-28T18:27:56.338Z,27.92
2022-11-28T18:30:23.915Z,27.10
2022-11-28T18:32:51.624Z,26.63
2022-11-28T18:35:19.576Z,28.67
2022-11-28T18:37:48.745Z,28.38
2022-11-28T18:40:16.249Z,27.40
2022-11-28T18:42:44.673Z,26.88
2022-11-28T18:45:12.654Z,27.50
2022-11-28T18:47:40.298Z,24.77
2022-11-28T18:50:08.870Z,24.05
2022-11-28T18:52:36.581Z,26.58
2022-11-28T18:55:04.247Z,28.25
2022-11-28T18:57:34.543Z,26.88
2022-11-28T19:00:02.175Z,28.52
2022-11-28T19:02:29.759Z,31.77
2022-11-28T19:04:57.982Z,28.38
2022-11-28T19:07:25.642Z,26.40
2022-11-28T19:09:53.600Z,26.58
2022-11-28T19:12:21.384Z,26.83
2022-11-28T19:14:48.953Z,25.20
2022-11-28T19:17:16.408Z,25.02
2022-11-28T19:19:44.934Z,29.23
2022-11-28T19:22:12.727Z,29.27
2022-11-28T19:24:40.268Z,30.00
2022-11-28T19:27:14.053Z,27.92
2022-11-28T19:29:43.563Z,26.42
2022-11-28T19:32:12.633Z,27.38
2022-11-28T19:34:40.123Z,26.25
2022-11-28T19:37:07.962Z,28.15
2022-11-28T19:39:35.481Z,32.08
2022-11-28T19:42:03.750Z,29.88
2022-11-28T19:44:31.884Z,25.75
2022-11-28T19:46:59.377Z,30.40
2022-11-28T19:49:29.318Z,29.80
2022-11-28T19:51:56.875Z,29.85
2022-11-28T19:54:24.532Z,30.42
2022-11-28T19:56:54.671Z,31.95
2022-11-28T19:59:22.477Z,29.08
2022-11-28T20:01:50.240Z,30.70
2022-11-28T20:04:17.847Z,27.85
2022-11-28T20:06:45.360Z,27.60
2022-11-28T20:09:14.083Z,29.52
2022-11-28T20:11:43.296Z,27.38
2022-11-28T20:14:13.068Z,27.52
2022-11-28T20:16:41.683Z,23.13
2022-11-28T20:19:11.093Z,27.73
2022-11-28T20:21:38.630Z,24.55
2022-11-28T20:24:07.621Z,27.52
2022-11-28T20:26:41.293Z,29.13
2022-11-28T20:29:10.121Z,27.15
2022-11-28T20:31:45.255Z,28.42
2022-11-28T20:34:16.359Z,25.17
2022-11-28T20:36:44.468Z,29.90
2022-11-28T20:39:12.768Z,25.13
2022-11-28T20:41:40.300Z,25.08
2022-11-28T20:44:08.286Z,26.17
2022-11-28T20:46:35.882Z,27.25
2022-11-28T20:49:05.096Z,26.70
2022-11-28T20:51:33.500Z,24.85
2022-11-28T20:54:01.436Z,26.13
2022-11-28T20:56:30.387Z,26.05
2022-11-28T20:59:01.426Z,27.45
2022-11-28T21:01:30.630Z,26.42
2022-11-28T21:03:58.480Z,27.02
2022-11-28T21:06:26.156Z,24.38
2022-11-28T21:08:53.557Z,27.02
2022-11-28T21:11:43.872Z,23.13
2022-11-28T21:14:09.702Z,25.63
2022-11-28T21:16:37.390Z,27.45
2022-11-28T21:19:07.635Z,23.05
2022-11-28T21:21:36.266Z,25.98
2022-11-28T21:24:08.274Z,24.02
2022-11-28T21:26:40.876Z,26.20
2022-11-28T21:29:12.078Z,27.92
2022-11-28T21:31:41.937Z,26.35
2022-11-28T21:34:13.067Z,22.95
2022-11-28T21:36:40.707Z,22.17
2022-11-28T21:39:09.174Z,25.73
2022-11-28T21:41:36.587Z,24.33
2022-11-28T21:44:04.826Z,24.88
2022-11-28T21:46:32.322Z,26.30
2022-11-28T21:48:59.739Z,24.63
2022-11-28T21:51:28.742Z,22.65
2022-11-28T21:54:00.371Z,25.20
2022-11-28T21:56:28.141Z,25.05
2022-11-28T21:58:55.667Z,21.02
2022-11-28T22:01:25.031Z,23.92
2022-11-28T22:03:55.475Z,25.50
2022-11-28T22:06:27.343Z,23.73
2022-11-28T22:08:55.337Z,22.88
2022-11-28T22:11:24.148Z,23.02
2022-11-28T22:13:52.878Z,23.73
2022-11-28T22:16:24.966Z,23.85
2022-11-28T22:18:53.521Z,23.75
2022-11-28T22:24:08.782Z,23.52
2022-11-28T22:26:36.207Z,22.15
2022-11-28T22:29:04.588Z,19.88
2022-11-28T22:31:33.349Z,24.25
2022-11-28T22:34:00.912Z,23.50
2022-11-28T22:36:28.975Z,22.40
2022-11-28T22:38:57.338Z,23.65
2022-11-28T22:41:29.278Z,22.02
2022-11-28T22:44:00.685Z,25.17
2022-11-28T22:46:29.880Z,25.15
2022-11-28T22:49:00.053Z,22.48
2022-11-28T22:51:28.191Z,23.92
2022-11-28T22:53:59.413Z,24.60
2022-11-28T22:56:28.012Z,24.25
2022-11-28T22:58:55.853Z,22.17
2022-11-28T23:01:25.864Z,23.05
2022-11-28T23:03:54.176Z,19.80
2022-11-28T23:06:24.549Z,21.13
2022-11-28T23:08:55.912Z,19.30
2022-11-28T23:11:26.991Z,19.85
2022-11-28T23:13:55.005Z,17.00
2022-11-28T23:16:23.013Z,20.42
2022-11-28T23:18:52.433Z,20.90
2022-11-28T23:21:21.473Z,20.52
2022-11-28T23:23:48.963Z,23.00
2022-11-28T23:26:18.055Z,20.25
2022-11-28T23:28:45.816Z,22.65
2022-11-28T23:31:33.388Z,22.48
2022-11-28T23:34:01.311Z,21.77
2022-11-28T23:36:38.494Z,23.10
2022-11-28T23:39:13.779Z,22.77
2022-11-28T23:41:41.381Z,23.70
2022-11-28T23:44:10.091Z,25.05
2022-11-28T23:46:38.145Z,21.42
2022-11-28T23:49:06.090Z,24.98
2022-11-28T23:51:33.662Z,20.52
2022-11-28T23:54:01.140Z,24.08
2022-11-28T23:56:30.224Z,20.50
2022-11-28T23:58:58.010Z,20.23
